sensor_id;sensor_type;location;lat;lon;timestamp;P1;durP1;ratioP1;P2;durP2;ratioP2
16504;SDS011;8365;51.030;4.696;2023-11-22T00:00:03;30.93;;;22.47;;
16504;SDS011;8365;51.030;4.696;2023-11-22T00:02:35;33.67;;;22.27;;
16504;SDS011;8365;51.030;4.696;2023-11-22T00:05:07;31.50;;;21.10;;
16504;SDS011;8365;51.030;4.696;2023-11-22T00:07:39;71.97;;;25.10;;
16504;SDS011;8365;51.030;4.696;2023-11-22T00:10:09;30.03;;;19.83;;
16504;SDS011;8365;51.030;4.696;2023-11-22T00:12:40;36.83;;;20.97;;
16504;SDS011;8365;51.030;4.696;2023-11-22T00:15:13;30.80;;;20.17;;
16504;SDS011;8365;51.030;4.696;2023-11-22T00:17:48;31.53;;;20.47;;
16504;SDS011;8365;51.030;4.696;2023-11-22T00:20:18;30.13;;;19.93;;
16504;SDS011;8365;51.030;4.696;2023-11-22T00:22:51;28.87;;;20.47;;
16504;SDS011;8365;51.030;4.696;2023-11-22T00:25:22;29.37;;;20.67;;
16504;SDS011;8365;51.030;4.696;2023-11-22T00:27:52;30.97;;;20.83;;
16504;SDS011;8365;51.030;4.696;2023-11-22T00:30:23;32.87;;;20.77;;
16504;SDS011;8365;51.030;4.696;2023-11-22T00:32:53;29.10;;;20.47;;
16504;SDS011;8365;51.030;4.696;2023-11-22T00:35:27;28.17;;;21.07;;
16504;SDS011;8365;51.030;4.696;2023-11-22T00:37:57;26.97;;;19.47;;
16504;SDS011;8365;51.030;4.696;2023-11-22T00:40:28;29.43;;;20.50;;
16504;SDS011;8365;51.030;4.696;2023-11-22T00:42:58;29.37;;;19.10;;
16504;SDS011;8365;51.030;4.696;2023-11-22T00:45:29;30.13;;;18.80;;
16504;SDS011;8365;51.030;4.696;2023-11-22T00:47:59;26.63;;;19.13;;
16504;SDS011;8365;51.030;4.696;2023-11-22T00:50:30;27.17;;;19.13;;
16504;SDS011;8365;51.030;4.696;2023-11-22T00:53:01;28.40;;;20.13;;
16504;SDS011;8365;51.030;4.696;2023-11-22T00:55:31;25.00;;;17.50;;
16504;SDS011;8365;51.030;4.696;2023-11-22T00:58:02;28.30;;;19.70;;
16504;SDS011;8365;51.030;4.696;2023-11-22T01:00:34;27.30;;;19.17;;
16504;SDS011;8365;51.030;4.696;2023-11-22T01:03:07;27.40;;;18.37;;
16504;SDS011;8365;51.030;4.696;2023-11-22T01:05:41;25.73;;;18.27;;
16504;SDS011;8365;51.030;4.696;2023-11-22T01:08:12;29.00;;;19.47;;
16504;SDS011;8365;51.030;4.696;2023-11-22T01:10:44;28.50;;;19.40;;
16504;SDS011;8365;51.030;4.696;2023-11-22T01:13:14;29.53;;;20.10;;
16504;SDS011;8365;51.030;4.696;2023-11-22T01:15:45;27.80;;;19.47;;
16504;SDS011;8365;51.030;4.696;2023-11-22T01:18:16;26.00;;;18.23;;
16504;SDS011;8365;51.030;4.696;2023-11-22T01:20:47;26.90;;;18.87;;
16504;SDS011;8365;51.030;4.696;2023-11-22T01:23:18;30.57;;;19.07;;
16504;SDS011;8365;51.030;4.696;2023-11-22T01:25:50;27.63;;;18.30;;
16504;SDS011;8365;51.030;4.696;2023-11-22T01:28:24;28.90;;;20.43;;
16504;SDS011;8365;51.030;4.696;2023-11-22T01:30:57;30.73;;;20.83;;
16504;SDS011;8365;51.030;4.696;2023-11-22T01:33:30;32.07;;;22.60;;
16504;SDS011;8365;51.030;4.696;2023-11-22T01:36:04;32.70;;;20.30;;
16504;SDS011;8365;51.030;4.696;2023-11-22T01:38:35;29.47;;;20.87;;
16504;SDS011;8365;51.030;4.696;2023-11-22T01:41:06;29.20;;;19.97;;
16504;SDS011;8365;51.030;4.696;2023-11-22T01:43:37;31.70;;;20.67;;
16504;SDS011;8365;51.030;4.696;2023-11-22T01:46:10;29.87;;;19.50;;
16504;SDS011;8365;51.030;4.696;2023-11-22T01:48:55;30.80;;;19.97;;
16504;SDS011;8365;51.030;4.696;2023-11-22T01:51:26;30.87;;;21.47;;
16504;SDS011;8365;51.030;4.696;2023-11-22T01:53:57;30.93;;;21.10;;
16504;SDS011;8365;51.030;4.696;2023-11-22T01:56:28;31.10;;;20.93;;
16504;SDS011;8365;51.030;4.696;2023-11-22T01:59:00;32.07;;;20.80;;
16504;SDS011;8365;51.030;4.696;2023-11-22T02:01:31;31.60;;;21.00;;
16504;SDS011;8365;51.030;4.696;2023-11-22T02:04:02;29.07;;;20.53;;
16504;SDS011;8365;51.030;4.696;2023-11-22T02:06:32;34.23;;;21.07;;
16504;SDS011;8365;51.030;4.696;2023-11-22T02:09:03;31.00;;;20.80;;
16504;SDS011;8365;51.030;4.696;2023-11-22T02:11:34;30.10;;;19.53;;
16504;SDS011;8365;51.030;4.696;2023-11-22T02:14:06;31.00;;;21.63;;
16504;SDS011;8365;51.030;4.696;2023-11-22T02:16:39;31.50;;;20.87;;
16504;SDS011;8365;51.030;4.696;2023-11-22T02:19:14;30.40;;;20.30;;
16504;SDS011;8365;51.030;4.696;2023-11-22T02:21:46;26.43;;;20.07;;
16504;SDS011;8365;51.030;4.696;2023-11-22T02:24:19;27.77;;;19.87;;
16504;SDS011;8365;51.030;4.696;2023-11-22T02:26:49;29.77;;;19.80;;
16504;SDS011;8365;51.030;4.696;2023-11-22T02:29:20;27.40;;;19.30;;
16504;SDS011;8365;51.030;4.696;2023-11-22T02:31:50;28.67;;;20.03;;
16504;SDS011;8365;51.030;4.696;2023-11-22T02:34:21;27.30;;;17.93;;
16504;SDS011;8365;51.030;4.696;2023-11-22T02:36:51;28.10;;;17.90;;
16504;SDS011;8365;51.030;4.696;2023-11-22T02:39:22;26.63;;;19.07;;
16504;SDS011;8365;51.030;4.696;2023-11-22T02:42:03;27.43;;;18.50;;
16504;SDS011;8365;51.030;4.696;2023-11-22T02:44:34;28.57;;;19.10;;
16504;SDS011;8365;51.030;4.696;2023-11-22T02:47:04;31.57;;;20.43;;
16504;SDS011;8365;51.030;4.696;2023-11-22T02:49:35;32.33;;;20.30;;
16504;SDS011;8365;51.030;4.696;2023-11-22T02:52:08;32.00;;;20.23;;
16504;SDS011;8365;51.030;4.696;2023-11-22T02:54:40;28.17;;;20.23;;
16504;SDS011;8365;51.030;4.696;2023-11-22T02:57:13;27.97;;;19.70;;
16504;SDS011;8365;51.030;4.696;2023-11-22T02:59:44;27.63;;;19.53;;
16504;SDS011;8365;51.030;4.696;2023-11-22T03:02:14;25.43;;;18.63;;
16504;SDS011;8365;51.030;4.696;2023-11-22T03:04:47;29.80;;;19.77;;
16504;SDS011;8365;51.030;4.696;2023-11-22T03:07:17;28.07;;;18.90;;
16504;SDS011;8365;51.030;4.696;2023-11-22T03:09:48;30.33;;;19.23;;
16504;SDS011;8365;51.030;4.696;2023-11-22T03:12:18;27.23;;;18.37;;
16504;SDS011;8365;51.030;4.696;2023-11-22T03:14:53;27.40;;;17.93;;
16504;SDS011;8365;51.030;4.696;2023-11-22T03:17:28;29.20;;;18.23;;
16504;SDS011;8365;51.030;4.696;2023-11-22T03:19:59;24.60;;;16.70;;
16504;SDS011;8365;51.030;4.696;2023-11-22T03:22:30;28.07;;;17.43;;
16504;SDS011;8365;51.030;4.696;2023-11-22T03:25:01;25.57;;;16.93;;
16504;SDS011;8365;51.030;4.696;2023-11-22T03:27:32;25.67;;;16.53;;
16504;SDS011;8365;51.030;4.696;2023-11-22T03:30:03;27.67;;;17.20;;
16504;SDS011;8365;51.030;4.696;2023-11-22T03:32:34;23.00;;;16.20;;
16504;SDS011;8365;51.030;4.696;2023-11-22T03:35:08;21.87;;;15.57;;
16504;SDS011;8365;51.030;4.696;2023-11-22T03:37:38;26.97;;;17.37;;
16504;SDS011;8365;51.030;4.696;2023-11-22T03:40:09;24.40;;;15.50;;
16504;SDS011;8365;51.030;4.696;2023-11-22T03:42:40;22.00;;;13.30;;
16504;SDS011;8365;51.030;4.696;2023-11-22T03:45:11;63.97;;;15.90;;
16504;SDS011;8365;51.030;4.696;2023-11-22T03:47:43;54.60;;;15.10;;
16504;SDS011;8365;51.030;4.696;2023-11-22T03:50:16;56.80;;;15.30;;
16504;SDS011;8365;51.030;4.696;2023-11-22T03:52:46;19.50;;;13.30;;
16504;SDS011;8365;51.030;4.696;2023-11-22T03:55:17;19.20;;;12.60;;
16504;SDS011;8365;51.030;4.696;2023-11-22T03:57:47;17.90;;;13.20;;
16504;SDS011;8365;51.030;4.696;2023-11-22T04:00:18;17.87;;;12.63;;
16504;SDS011;8365;51.030;4.696;2023-11-22T04:02:49;20.67;;;13.63;;
16504;SDS011;8365;51.030;4.696;2023-11-22T04:05:20;20.27;;;14.67;;
16504;SDS011;8365;51.030;4.696;2023-11-22T04:07:53;25.37;;;16.07;;
16504;SDS011;8365;51.030;4.696;2023-11-22T04:10:24;25.87;;;16.97;;
16504;SDS011;8365;51.030;4.696;2023-11-22T04:12:55;28.13;;;18.40;;
16504;SDS011;8365;51.030;4.696;2023-11-22T04:15:25;29.27;;;19.80;;
16504;SDS011;8365;51.030;4.696;2023-11-22T04:17:57;31.33;;;20.13;;
16504;SDS011;8365;51.030;4.696;2023-11-22T04:20:27;29.23;;;20.70;;
16504;SDS011;8365;51.030;4.696;2023-11-22T04:22:57;29.77;;;21.23;;
16504;SDS011;8365;51.030;4.696;2023-11-22T04:25:28;31.33;;;21.10;;
16504;SDS011;8365;51.030;4.696;2023-11-22T04:27:59;28.87;;;20.63;;
16504;SDS011;8365;51.030;4.696;2023-11-22T04:30:29;32.07;;;20.23;;
16504;SDS011;8365;51.030;4.696;2023-11-22T04:33:00;32.97;;;19.93;;
16504;SDS011;8365;51.030;4.696;2023-11-22T04:35:34;30.70;;;20.83;;
16504;SDS011;8365;51.030;4.696;2023-11-22T04:38:06;32.37;;;20.57;;
16504;SDS011;8365;51.030;4.696;2023-11-22T04:40:37;31.70;;;20.43;;
16504;SDS011;8365;51.030;4.696;2023-11-22T04:43:08;31.00;;;20.13;;
16504;SDS011;8365;51.030;4.696;2023-11-22T04:45:38;30.00;;;20.57;;
16504;SDS011;8365;51.030;4.696;2023-11-22T04:48:09;30.93;;;19.80;;
16504;SDS011;8365;51.030;4.696;2023-11-22T04:50:40;33.60;;;21.70;;
16504;SDS011;8365;51.030;4.696;2023-11-22T04:53:10;32.27;;;20.73;;
16504;SDS011;8365;51.030;4.696;2023-11-22T04:55:41;27.17;;;18.27;;
16504;SDS011;8365;51.030;4.696;2023-11-22T04:58:12;25.67;;;17.40;;
16504;SDS011;8365;51.030;4.696;2023-11-22T05:00:42;29.20;;;19.77;;
16504;SDS011;8365;51.030;4.696;2023-11-22T05:03:15;32.20;;;20.37;;
16504;SDS011;8365;51.030;4.696;2023-11-22T05:05:46;30.70;;;20.63;;
16504;SDS011;8365;51.030;4.696;2023-11-22T05:08:16;31.40;;;20.23;;
16504;SDS011;8365;51.030;4.696;2023-11-22T05:10:47;29.03;;;19.47;;
16504;SDS011;8365;51.030;4.696;2023-11-22T05:13:17;30.17;;;20.03;;
16504;SDS011;8365;51.030;4.696;2023-11-22T05:15:49;30.17;;;19.50;;
16504;SDS011;8365;51.030;4.696;2023-11-22T05:18:20;26.50;;;18.97;;
16504;SDS011;8365;51.030;4.696;2023-11-22T05:20:53;28.57;;;18.80;;
16504;SDS011;8365;51.030;4.696;2023-11-22T05:23:26;25.67;;;18.40;;
16504;SDS011;8365;51.030;4.696;2023-11-22T05:25:56;26.20;;;19.37;;
16504;SDS011;8365;51.030;4.696;2023-11-22T05:28:27;29.23;;;19.03;;
16504;SDS011;8365;51.030;4.696;2023-11-22T05:30:59;26.37;;;18.70;;
16504;SDS011;8365;51.030;4.696;2023-11-22T05:33:30;29.83;;;19.20;;
16504;SDS011;8365;51.030;4.696;2023-11-22T05:36:02;31.67;;;20.83;;
16504;SDS011;8365;51.030;4.696;2023-11-22T05:38:33;35.63;;;22.37;;
16504;SDS011;8365;51.030;4.696;2023-11-22T05:41:03;43.63;;;23.37;;
16504;SDS011;8365;51.030;4.696;2023-11-22T05:43:34;39.23;;;25.20;;
16504;SDS011;8365;51.030;4.696;2023-11-22T05:46:06;36.80;;;22.90;;
16504;SDS011;8365;51.030;4.696;2023-11-22T05:48:37;43.83;;;23.50;;
16504;SDS011;8365;51.030;4.696;2023-11-22T05:51:07;49.17;;;26.57;;
16504;SDS011;8365;51.030;4.696;2023-11-22T05:53:38;44.47;;;23.13;;
16504;SDS011;8365;51.030;4.696;2023-11-22T05:56:09;52.17;;;23.43;;
16504;SDS011;8365;51.030;4.696;2023-11-22T05:58:39;54.27;;;25.40;;
16504;SDS011;8365;51.030;4.696;2023-11-22T06:01:10;102.17;;;27.13;;
16504;SDS011;8365;51.030;4.696;2023-11-22T06:03:44;77.80;;;24.33;;
16504;SDS011;8365;51.030;4.696;2023-11-22T06:06:14;82.77;;;24.77;;
16504;SDS011;8365;51.030;4.696;2023-11-22T06:08:45;87.57;;;25.63;;
16504;SDS011;8365;51.030;4.696;2023-11-22T06:11:15;65.27;;;25.13;;
16504;SDS011;8365;51.030;4.696;2023-11-22T06:13:46;73.93;;;26.60;;
16504;SDS011;8365;51.030;4.696;2023-11-22T06:16:17;65.77;;;26.70;;
16504;SDS011;8365;51.030;4.696;2023-11-22T06:18:50;49.93;;;25.70;;
16504;SDS011;8365;51.030;4.696;2023-11-22T06:21:20;63.60;;;26.20;;
16504;SDS011;8365;51.030;4.696;2023-11-22T06:23:59;93.77;;;26.80;;
16504;SDS011;8365;51.030;4.696;2023-11-22T06:26:31;94.80;;;26.87;;
16504;SDS011;8365;51.030;4.696;2023-11-22T06:29:02;109.70;;;28.80;;
16504;SDS011;8365;51.030;4.696;2023-11-22T06:31:33;60.60;;;25.57;;
16504;SDS011;8365;51.030;4.696;2023-11-22T06:34:03;49.93;;;25.80;;
16504;SDS011;8365;51.030;4.696;2023-11-22T06:36:34;63.90;;;27.80;;
16504;SDS011;8365;51.030;4.696;2023-11-22T06:39:04;62.17;;;26.43;;
16504;SDS011;8365;51.030;4.696;2023-11-22T06:41:36;62.20;;;26.90;;
16504;SDS011;8365;51.030;4.696;2023-11-22T06:44:07;58.70;;;27.30;;
16504;SDS011;8365;51.030;4.696;2023-11-22T06:46:37;57.57;;;28.37;;
16504;SDS011;8365;51.030;4.696;2023-11-22T06:49:07;68.23;;;30.30;;
16504;SDS011;8365;51.030;4.696;2023-11-22T06:51:40;69.83;;;27.40;;
16504;SDS011;8365;51.030;4.696;2023-11-22T06:54:11;50.90;;;28.53;;
16504;SDS011;8365;51.030;4.696;2023-11-22T06:56:41;56.30;;;28.50;;
16504;SDS011;8365;51.030;4.696;2023-11-22T06:59:18;54.97;;;28.43;;
16504;SDS011;8365;51.030;4.696;2023-11-22T07:01:49;110.87;;;31.37;;
16504;SDS011;8365;51.030;4.696;2023-11-22T07:04:19;65.87;;;32.20;;
16504;SDS011;8365;51.030;4.696;2023-11-22T07:06:51;107.83;;;49.77;;
16504;SDS011;8365;51.030;4.696;2023-11-22T07:09:22;73.17;;;32.50;;
16504;SDS011;8365;51.030;4.696;2023-11-22T07:11:52;64.87;;;31.33;;
16504;SDS011;8365;51.030;4.696;2023-11-22T07:14:22;65.23;;;32.63;;
16504;SDS011;8365;51.030;4.696;2023-11-22T07:16:54;67.57;;;32.43;;
16504;SDS011;8365;51.030;4.696;2023-11-22T07:19:27;74.37;;;35.57;;
16504;SDS011;8365;51.030;4.696;2023-11-22T07:22:00;91.27;;;34.20;;
16504;SDS011;8365;51.030;4.696;2023-11-22T07:24:34;90.83;;;36.63;;
16504;SDS011;8365;51.030;4.696;2023-11-22T07:27:04;73.47;;;33.30;;
16504;SDS011;8365;51.030;4.696;2023-11-22T07:29:35;76.10;;;37.90;;
16504;SDS011;8365;51.030;4.696;2023-11-22T07:32:06;90.00;;;49.80;;
16504;SDS011;8365;51.030;4.696;2023-11-22T07:34:39;63.67;;;32.60;;
16504;SDS011;8365;51.030;4.696;2023-11-22T07:37:10;63.77;;;33.20;;
16504;SDS011;8365;51.030;4.696;2023-11-22T07:39:47;57.20;;;30.87;;
16504;SDS011;8365;51.030;4.696;2023-11-22T07:42:19;67.60;;;39.17;;
16504;SDS011;8365;51.030;4.696;2023-11-22T07:44:50;68.67;;;41.97;;
16504;SDS011;8365;51.030;4.696;2023-11-22T07:47:25;61.57;;;34.70;;
16504;SDS011;8365;51.030;4.696;2023-11-22T07:49:56;64.57;;;32.70;;
16504;SDS011;8365;51.030;4.696;2023-11-22T07:52:27;62.43;;;32.20;;
16504;SDS011;8365;51.030;4.696;2023-11-22T07:55:00;64.40;;;35.33;;
16504;SDS011;8365;51.030;4.696;2023-11-22T07:57:30;64.30;;;35.43;;
16504;SDS011;8365;51.030;4.696;2023-11-22T08:00:01;72.47;;;43.50;;
16504;SDS011;8365;51.030;4.696;2023-11-22T08:02:37;68.30;;;36.87;;
16504;SDS011;8365;51.030;4.696;2023-11-22T08:05:12;64.67;;;34.17;;
16504;SDS011;8365;51.030;4.696;2023-11-22T08:07:45;67.47;;;33.37;;
16504;SDS011;8365;51.030;4.696;2023-11-22T08:10:15;67.37;;;36.73;;
16504;SDS011;8365;51.030;4.696;2023-11-22T08:12:49;67.80;;;35.97;;
16504;SDS011;8365;51.030;4.696;2023-11-22T08:15:20;69.10;;;41.00;;
16504;SDS011;8365;51.030;4.696;2023-11-22T08:17:51;63.93;;;33.10;;
16504;SDS011;8365;51.030;4.696;2023-11-22T08:20:22;63.47;;;32.27;;
16504;SDS011;8365;51.030;4.696;2023-11-22T08:22:52;63.90;;;33.60;;
16504;SDS011;8365;51.030;4.696;2023-11-22T08:25:24;55.90;;;30.33;;
16504;SDS011;8365;51.030;4.696;2023-11-22T08:27:54;52.07;;;27.53;;
16504;SDS011;8365;51.030;4.696;2023-11-22T08:30:25;55.63;;;29.17;;
16504;SDS011;8365;51.030;4.696;2023-11-22T08:32:55;58.23;;;29.33;;
16504;SDS011;8365;51.030;4.696;2023-11-22T08:35:28;55.30;;;29.33;;
16504;SDS011;8365;51.030;4.696;2023-11-22T08:37:58;54.97;;;29.33;;
16504;SDS011;8365;51.030;4.696;2023-11-22T08:40:30;60.03;;;32.00;;
16504;SDS011;8365;51.030;4.696;2023-11-22T08:43:01;59.20;;;30.83;;
16504;SDS011;8365;51.030;4.696;2023-11-22T08:45:31;57.23;;;30.40;;
16504;SDS011;8365;51.030;4.696;2023-11-22T08:48:02;81.17;;;67.53;;
16504;SDS011;8365;51.030;4.696;2023-11-22T08:50:33;56.73;;;32.13;;
16504;SDS011;8365;51.030;4.696;2023-11-22T08:53:03;57.90;;;36.10;;
16504;SDS011;8365;51.030;4.696;2023-11-22T08:55:35;56.73;;;34.93;;
16504;SDS011;8365;51.030;4.696;2023-11-22T08:58:06;52.63;;;30.67;;
16504;SDS011;8365;51.030;4.696;2023-11-22T09:00:38;61.63;;;34.60;;
16504;SDS011;8365;51.030;4.696;2023-11-22T09:03:08;49.87;;;29.03;;
16504;SDS011;8365;51.030;4.696;2023-11-22T09:05:43;50.87;;;28.23;;
16504;SDS011;8365;51.030;4.696;2023-11-22T09:08:13;52.57;;;31.70;;
16504;SDS011;8365;51.030;4.696;2023-11-22T09:10:45;46.83;;;28.83;;
16504;SDS011;8365;51.030;4.696;2023-11-22T09:13:15;46.87;;;27.37;;
16504;SDS011;8365;51.030;4.696;2023-11-22T09:15:46;46.57;;;27.90;;
16504;SDS011;8365;51.030;4.696;2023-11-22T09:18:17;49.13;;;28.43;;
16504;SDS011;8365;51.030;4.696;2023-11-22T09:20:51;48.90;;;27.10;;
16504;SDS011;8365;51.030;4.696;2023-11-22T09:23:22;46.67;;;27.80;;
16504;SDS011;8365;51.030;4.696;2023-11-22T09:25:53;45.07;;;26.47;;
16504;SDS011;8365;51.030;4.696;2023-11-22T09:28:25;43.73;;;26.87;;
16504;SDS011;8365;51.030;4.696;2023-11-22T09:30:57;46.53;;;27.43;;
16504;SDS011;8365;51.030;4.696;2023-11-22T09:33:35;39.33;;;24.97;;
16504;SDS011;8365;51.030;4.696;2023-11-22T09:36:07;44.03;;;25.03;;
16504;SDS011;8365;51.030;4.696;2023-11-22T09:38:38;44.93;;;26.20;;
16504;SDS011;8365;51.030;4.696;2023-11-22T09:41:09;39.20;;;25.53;;
16504;SDS011;8365;51.030;4.696;2023-11-22T09:43:39;44.17;;;26.37;;
16504;SDS011;8365;51.030;4.696;2023-11-22T09:46:10;40.27;;;25.13;;
16504;SDS011;8365;51.030;4.696;2023-11-22T09:48:42;41.90;;;27.20;;
16504;SDS011;8365;51.030;4.696;2023-11-22T09:51:26;43.13;;;25.83;;
16504;SDS011;8365;51.030;4.696;2023-11-22T09:53:59;42.80;;;26.00;;
16504;SDS011;8365;51.030;4.696;2023-11-22T09:56:34;40.73;;;25.33;;
16504;SDS011;8365;51.030;4.696;2023-11-22T09:59:07;50.47;;;34.47;;
16504;SDS011;8365;51.030;4.696;2023-11-22T10:01:38;39.47;;;24.53;;
16504;SDS011;8365;51.030;4.696;2023-11-22T10:04:09;36.90;;;22.40;;
16504;SDS011;8365;51.030;4.696;2023-11-22T10:06:39;43.63;;;25.83;;
16504;SDS011;8365;51.030;4.696;2023-11-22T10:09:10;43.80;;;26.70;;
16504;SDS011;8365;51.030;4.696;2023-11-22T10:11:44;40.33;;;26.07;;
16504;SDS011;8365;51.030;4.696;2023-11-22T10:14:24;38.87;;;23.77;;
16504;SDS011;8365;51.030;4.696;2023-11-22T10:16:58;37.67;;;24.40;;
16504;SDS011;8365;51.030;4.696;2023-11-22T10:19:32;37.47;;;25.07;;
16504;SDS011;8365;51.030;4.696;2023-11-22T10:22:03;36.13;;;22.40;;
16504;SDS011;8365;51.030;4.696;2023-11-22T10:24:36;39.30;;;25.43;;
16504;SDS011;8365;51.030;4.696;2023-11-22T10:27:06;42.03;;;26.67;;
16504;SDS011;8365;51.030;4.696;2023-11-22T10:29:37;34.90;;;22.23;;
16504;SDS011;8365;51.030;4.696;2023-11-22T10:32:07;40.20;;;24.20;;
16504;SDS011;8365;51.030;4.696;2023-11-22T10:34:38;37.20;;;24.07;;
16504;SDS011;8365;51.030;4.696;2023-11-22T10:37:09;41.37;;;24.43;;
16504;SDS011;8365;51.030;4.696;2023-11-22T10:39:40;36.83;;;23.97;;
16504;SDS011;8365;51.030;4.696;2023-11-22T10:42:13;39.73;;;24.67;;
16504;SDS011;8365;51.030;4.696;2023-11-22T10:44:44;38.83;;;23.70;;
16504;SDS011;8365;51.030;4.696;2023-11-22T10:47:17;35.30;;;23.80;;
16504;SDS011;8365;51.030;4.696;2023-11-22T10:49:49;36.33;;;24.53;;
16504;SDS011;8365;51.030;4.696;2023-11-22T10:52:21;34.00;;;22.43;;
16504;SDS011;8365;51.030;4.696;2023-11-22T10:54:59;38.20;;;23.33;;
16504;SDS011;8365;51.030;4.696;2023-11-22T10:57:36;38.57;;;23.63;;
16504;SDS011;8365;51.030;4.696;2023-11-22T11:00:14;36.37;;;22.63;;
16504;SDS011;8365;51.030;4.696;2023-11-22T11:02:46;32.23;;;21.30;;
16504;SDS011;8365;51.030;4.696;2023-11-22T11:05:21;32.53;;;20.93;;
16504;SDS011;8365;51.030;4.696;2023-11-22T11:08:02;33.27;;;22.40;;
16504;SDS011;8365;51.030;4.696;2023-11-22T11:10:41;38.37;;;24.27;;
16504;SDS011;8365;51.030;4.696;2023-11-22T11:13:12;33.47;;;22.23;;
16504;SDS011;8365;51.030;4.696;2023-11-22T11:15:43;38.83;;;23.33;;
16504;SDS011;8365;51.030;4.696;2023-11-22T11:18:15;34.63;;;22.97;;
16504;SDS011;8365;51.030;4.696;2023-11-22T11:23:23;35.17;;;23.03;;
16504;SDS011;8365;51.030;4.696;2023-11-22T11:25:58;34.10;;;23.10;;
16504;SDS011;8365;51.030;4.696;2023-11-22T11:28:42;33.97;;;22.57;;
16504;SDS011;8365;51.030;4.696;2023-11-22T11:31:14;34.07;;;22.60;;
16504;SDS011;8365;51.030;4.696;2023-11-22T11:36:28;33.90;;;22.63;;
16504;SDS011;8365;51.030;4.696;2023-11-22T11:39:02;34.27;;;22.07;;
16504;SDS011;8365;51.030;4.696;2023-11-22T11:41:40;33.97;;;23.10;;
16504;SDS011;8365;51.030;4.696;2023-11-22T11:44:11;33.10;;;22.43;;
16504;SDS011;8365;51.030;4.696;2023-11-22T11:46:42;32.20;;;21.73;;
16504;SDS011;8365;51.030;4.696;2023-11-22T11:49:14;36.67;;;25.40;;
16504;SDS011;8365;51.030;4.696;2023-11-22T11:51:44;34.10;;;23.67;;
16504;SDS011;8365;51.030;4.696;2023-11-22T11:54:15;36.47;;;24.50;;
16504;SDS011;8365;51.030;4.696;2023-11-22T11:56:46;37.03;;;24.57;;
16504;SDS011;8365;51.030;4.696;2023-11-22T11:59:19;37.23;;;23.70;;
16504;SDS011;8365;51.030;4.696;2023-11-22T12:01:54;38.60;;;25.33;;
16504;SDS011;8365;51.030;4.696;2023-11-22T12:04:26;35.30;;;23.13;;
16504;SDS011;8365;51.030;4.696;2023-11-22T12:06:57;50.10;;;43.10;;
16504;SDS011;8365;51.030;4.696;2023-11-22T12:09:27;36.17;;;25.10;;
16504;SDS011;8365;51.030;4.696;2023-11-22T12:12:05;35.83;;;24.53;;
16504;SDS011;8365;51.030;4.696;2023-11-22T12:14:36;36.43;;;24.20;;
16504;SDS011;8365;51.030;4.696;2023-11-22T12:17:07;33.40;;;22.40;;
16504;SDS011;8365;51.030;4.696;2023-11-22T12:19:40;32.07;;;22.73;;
16504;SDS011;8365;51.030;4.696;2023-11-22T12:22:10;37.70;;;23.53;;
16504;SDS011;8365;51.030;4.696;2023-11-22T12:24:42;34.33;;;22.70;;
16504;SDS011;8365;51.030;4.696;2023-11-22T12:27:16;36.70;;;24.47;;
16504;SDS011;8365;51.030;4.696;2023-11-22T12:29:48;34.63;;;23.10;;
16504;SDS011;8365;51.030;4.696;2023-11-22T12:32:24;32.90;;;22.43;;
16504;SDS011;8365;51.030;4.696;2023-11-22T12:34:54;33.33;;;22.33;;
16504;SDS011;8365;51.030;4.696;2023-11-22T12:37:26;32.43;;;22.23;;
16504;SDS011;8365;51.030;4.696;2023-11-22T12:39:57;30.33;;;21.53;;
16504;SDS011;8365;51.030;4.696;2023-11-22T12:42:27;30.77;;;21.73;;
16504;SDS011;8365;51.030;4.696;2023-11-22T12:45:03;30.67;;;21.23;;
16504;SDS011;8365;51.030;4.696;2023-11-22T12:47:34;29.13;;;21.20;;
16504;SDS011;8365;51.030;4.696;2023-11-22T12:50:08;28.10;;;19.97;;
16504;SDS011;8365;51.030;4.696;2023-11-22T12:55:43;22.50;;;17.90;;
16504;SDS011;8365;51.030;4.696;2023-11-22T12:58:16;28.33;;;20.07;;
16504;SDS011;8365;51.030;4.696;2023-11-22T13:00:47;24.40;;;18.27;;
16504;SDS011;8365;51.030;4.696;2023-11-22T13:03:24;28.37;;;18.73;;
16504;SDS011;8365;51.030;4.696;2023-11-22T13:05:58;25.00;;;18.83;;
16504;SDS011;8365;51.030;4.696;2023-11-22T13:08:28;24.80;;;17.07;;
16504;SDS011;8365;51.030;4.696;2023-11-22T13:10:59;24.37;;;17.23;;
16504;SDS011;8365;51.030;4.696;2023-11-22T13:13:31;23.03;;;17.30;;
16504;SDS011;8365;51.030;4.696;2023-11-22T13:16:01;21.33;;;15.87;;
16504;SDS011;8365;51.030;4.696;2023-11-22T13:18:35;25.77;;;17.63;;
16504;SDS011;8365;51.030;4.696;2023-11-22T13:21:07;20.87;;;16.93;;
16504;SDS011;8365;51.030;4.696;2023-11-22T13:23:39;19.73;;;15.93;;
16504;SDS011;8365;51.030;4.696;2023-11-22T13:26:10;20.67;;;14.93;;
16504;SDS011;8365;51.030;4.696;2023-11-22T13:28:43;19.97;;;15.73;;
16504;SDS011;8365;51.030;4.696;2023-11-22T13:31:14;18.13;;;14.97;;
16504;SDS011;8365;51.030;4.696;2023-11-22T13:33:44;17.73;;;14.73;;
16504;SDS011;8365;51.030;4.696;2023-11-22T13:36:17;18.20;;;15.43;;
16504;SDS011;8365;51.030;4.696;2023-11-22T13:38:48;18.33;;;15.20;;
16504;SDS011;8365;51.030;4.696;2023-11-22T13:41:18;16.83;;;15.03;;
16504;SDS011;8365;51.030;4.696;2023-11-22T13:43:49;16.40;;;14.43;;
16504;SDS011;8365;51.030;4.696;2023-11-22T13:46:19;17.47;;;14.70;;
16504;SDS011;8365;51.030;4.696;2023-11-22T13:48:50;18.60;;;15.10;;
16504;SDS011;8365;51.030;4.696;2023-11-22T13:51:21;17.30;;;14.80;;
16504;SDS011;8365;51.030;4.696;2023-11-22T13:53:51;19.17;;;16.03;;
16504;SDS011;8365;51.030;4.696;2023-11-22T13:56:23;19.47;;;15.43;;
16504;SDS011;8365;51.030;4.696;2023-11-22T13:58:54;19.23;;;16.17;;
16504;SDS011;8365;51.030;4.696;2023-11-22T14:01:24;22.17;;;15.63;;
16504;SDS011;8365;51.030;4.696;2023-11-22T14:03:57;19.87;;;15.97;;
16504;SDS011;8365;51.030;4.696;2023-11-22T14:06:27;20.17;;;16.27;;
16504;SDS011;8365;51.030;4.696;2023-11-22T14:08:58;20.30;;;15.70;;
16504;SDS011;8365;51.030;4.696;2023-11-22T14:11:28;18.63;;;15.90;;
16504;SDS011;8365;51.030;4.696;2023-11-22T14:14:03;20.17;;;16.00;;
16504;SDS011;8365;51.030;4.696;2023-11-22T14:16:34;20.40;;;16.43;;
16504;SDS011;8365;51.030;4.696;2023-11-22T14:19:05;19.10;;;15.10;;
16504;SDS011;8365;51.030;4.696;2023-11-22T14:21:36;19.40;;;15.67;;
16504;SDS011;8365;51.030;4.696;2023-11-22T14:24:07;20.93;;;15.97;;
16504;SDS011;8365;51.030;4.696;2023-11-22T14:26:38;22.30;;;16.73;;
16504;SDS011;8365;51.030;4.696;2023-11-22T14:29:11;21.00;;;16.43;;
16504;SDS011;8365;51.030;4.696;2023-11-22T14:31:42;19.03;;;15.30;;
16504;SDS011;8365;51.030;4.696;2023-11-22T14:34:12;21.13;;;15.73;;
16504;SDS011;8365;51.030;4.696;2023-11-22T14:36:42;20.43;;;15.93;;
16504;SDS011;8365;51.030;4.696;2023-11-22T14:39:15;20.40;;;16.23;;
16504;SDS011;8365;51.030;4.696;2023-11-22T14:41:46;23.33;;;16.93;;
16504;SDS011;8365;51.030;4.696;2023-11-22T14:44:17;23.60;;;17.03;;
16504;SDS011;8365;51.030;4.696;2023-11-22T14:46:48;20.37;;;16.33;;
16504;SDS011;8365;51.030;4.696;2023-11-22T14:49:19;21.50;;;16.20;;
16504;SDS011;8365;51.030;4.696;2023-11-22T14:51:51;21.87;;;16.20;;
16504;SDS011;8365;51.030;4.696;2023-11-22T14:54:21;20.27;;;16.23;;
16504;SDS011;8365;51.030;4.696;2023-11-22T14:56:52;21.50;;;15.83;;
16504;SDS011;8365;51.030;4.696;2023-11-22T14:59:26;21.97;;;15.73;;
16504;SDS011;8365;51.030;4.696;2023-11-22T15:01:56;21.07;;;16.47;;
16504;SDS011;8365;51.030;4.696;2023-11-22T15:04:27;22.50;;;17.97;;
16504;SDS011;8365;51.030;4.696;2023-11-22T15:06:57;23.00;;;17.33;;